sensor_id;sensor_type;location;lat;lon;timestamp;pressure;altitude;pressure_sealevel;temperature;humidity
79075;BME280;68476;42.710;23.388;2024-01-06T00:02:08;95478.13;;;2.16;100.00
79075;BME280;68476;42.710;23.388;2024-01-06T00:04:33;95483.19;;;2.34;100.00
79075;BME280;68476;42.710;23.388;2024-01-06T00:06:59;95474.94;;;2.36;100.00
79075;BME280;68476;42.710;23.388;2024-01-06T00:09:24;95478.66;;;2.35;100.00
79075;BME280;68476;42.710;23.388;2024-01-06T00:11:50;95473.44;;;2.33;100.00
79075;BME280;68476;42.710;23.388;2024-01-06T00:14:15;95462.88;;;2.31;100.00
79075;BME280;68476;42.710;23.388;2024-01-06T00:16:41;95458.78;;;1.89;100.00
79075;BME280;68476;42.710;23.388;2024-01-06T00:19:06;95461.94;;;1.69;100.00
79075;BME280;68476;42.710;23.388;2024-01-06T00:21:32;95465.72;;;1.83;100.00
79075;BME280;68476;42.710;23.388;2024-01-06T00:23:58;95498.47;;;1.87;100.00
79075;BME280;68476;42.710;23.388;2024-01-06T00:26:23;95496.72;;;1.94;100.00
79075;BME280;68476;42.710;23.388;2024-01-06T00:28:50;95501.44;;;1.92;100.00
79075;BME280;68476;42.710;23.388;2024-01-06T00:31:15;95488.19;;;1.91;100.00
79075;BME280;68476;42.710;23.388;2024-01-06T00:33:42;95474.28;;;1.87;100.00
79075;BME280;68476;42.710;23.388;2024-01-06T00:36:08;95480.41;;;1.73;100.00
79075;BME280;68476;42.710;23.388;2024-01-06T00:38:34;95482.38;;;1.79;100.00
79075;BME280;68476;42.710;23.388;2024-01-06T00:41:00;95484.16;;;1.63;100.00
79075;BME280;68476;42.710;23.388;2024-01-06T00:43:26;95496.03;;;1.69;100.00
79075;BME280;68476;42.710;23.388;2024-01-06T00:45:51;95487.75;;;1.79;100.00
79075;BME280;68476;42.710;23.388;2024-01-06T00:48:17;95485.44;;;1.67;100.00
79075;BME280;68476;42.710;23.388;2024-01-06T00:50:43;95485.44;;;1.76;100.00
79075;BME280;68476;42.710;23.388;2024-01-06T00:53:08;95478.53;;;1.73;100.00
79075;BME280;68476;42.710;23.388;2024-01-06T00:55:34;95466.78;;;1.74;100.00
79075;BME280;68476;42.710;23.388;2024-01-06T00:58:00;95457.91;;;1.74;100.00
79075;BME280;68476;42.710;23.388;2024-01-06T01:00:25;95470.44;;;1.42;100.00
79075;BME280;68476;42.710;23.388;2024-01-06T01:02:52;95482.75;;;1.67;100.00
79075;BME280;68476;42.710;23.388;2024-01-06T01:05:18;95488.28;;;1.34;100.00
79075;BME280;68476;42.710;23.388;2024-01-06T01:07:44;95484.91;;;1.41;100.00
79075;BME280;68476;42.710;23.388;2024-01-06T01:10:09;95487.50;;;1.57;100.00
79075;BME280;68476;42.710;23.388;2024-01-06T01:12:35;95479.03;;;1.37;100.00
79075;BME280;68476;42.710;23.388;2024-01-06T01:15:01;95476.84;;;1.41;100.00
79075;BME280;68476;42.710;23.388;2024-01-06T01:17:26;95460.81;;;1.24;100.00
79075;BME280;68476;42.710;23.388;2024-01-06T01:19:51;95462.19;;;1.12;100.00
79075;BME280;68476;42.710;23.388;2024-01-06T01:22:17;95468.03;;;1.15;100.00
79075;BME280;68476;42.710;23.388;2024-01-06T01:24:43;95464.16;;;1.26;100.00
79075;BME280;68476;42.710;23.388;2024-01-06T01:27:08;95464.84;;;1.20;100.00
79075;BME280;68476;42.710;23.388;2024-01-06T01:29:34;95469.59;;;1.49;100.00
79075;BME280;68476;42.710;23.388;2024-01-06T01:32:00;95474.66;;;1.36;100.00
79075;BME280;68476;42.710;23.388;2024-01-06T01:34:25;95462.00;;;1.53;100.00
79075;BME280;68476;42.710;23.388;2024-01-06T01:36:51;95457.31;;;1.55;100.00
79075;BME280;68476;42.710;23.388;2024-01-06T01:39:17;95446.56;;;1.55;100.00
79075;BME280;68476;42.710;23.388;2024-01-06T01:41:42;95446.88;;;1.60;100.00
79075;BME280;68476;42.710;23.388;2024-01-06T01:44:08;95434.13;;;1.54;100.00
79075;BME280;68476;42.710;23.388;2024-01-06T01:46:33;95442.19;;;1.62;100.00
79075;BME280;68476;42.710;23.388;2024-01-06T01:49:00;95436.31;;;1.59;100.00
79075;BME280;68476;42.710;23.388;2024-01-06T01:51:29;95436.97;;;1.29;100.00
79075;BME280;68476;42.710;23.388;2024-01-06T01:53:58;95444.06;;;1.14;100.00
79075;BME280;68476;42.710;23.388;2024-01-06T01:56:25;95435.28;;;1.28;100.00
79075;BME280;68476;42.710;23.388;2024-01-06T01:58:51;95433.63;;;1.27;100.00
79075;BME280;68476;42.710;23.388;2024-01-06T02:01:17;95429.25;;;1.26;100.00
79075;BME280;68476;42.710;23.388;2024-01-06T02:03:43;95432.38;;;0.98;100.00
79075;BME280;68476;42.710;23.388;2024-01-06T02:06:09;95432.31;;;1.15;100.00
79075;BME280;68476;42.710;23.388;2024-01-06T02:08:34;95438.38;;;1.08;100.00
79075;BME280;68476;42.710;23.388;2024-01-06T02:11:00;95428.47;;;1.09;100.00
79075;BME280;68476;42.710;23.388;2024-01-06T02:13:36;95425.31;;;1.05;100.00
79075;BME280;68476;42.710;23.388;2024-01-06T02:16:05;95413.56;;;0.98;100.00
79075;BME280;68476;42.710;23.388;2024-01-06T02:18:32;95410.00;;;1.14;100.00
79075;BME280;68476;42.710;23.388;2024-01-06T02:20:59;95394.03;;;1.21;100.00
79075;BME280;68476;42.710;23.388;2024-01-06T02:23:25;95388.59;;;1.37;100.00
79075;BME280;68476;42.710;23.388;2024-01-06T02:25:50;95386.81;;;1.21;100.00
79075;BME280;68476;42.710;23.388;2024-01-06T02:28:16;95384.00;;;1.06;100.00
79075;BME280;68476;42.710;23.388;2024-01-06T02:30:41;95397.41;;;1.15;100.00
79075;BME280;68476;42.710;23.388;2024-01-06T02:33:07;95381.31;;;1.15;100.00
79075;BME280;68476;42.710;23.388;2024-01-06T02:35:32;95386.97;;;1.20;100.00
79075;BME280;68476;42.710;23.388;2024-01-06T02:37:59;95386.44;;;1.25;100.00
79075;BME280;68476;42.710;23.388;2024-01-06T02:40:24;95374.56;;;1.27;100.00
79075;BME280;68476;42.710;23.388;2024-01-06T02:42:50;95374.41;;;1.20;100.00
79075;BME280;68476;42.710;23.388;2024-01-06T02:45:15;95374.41;;;1.20;100.00
79075;BME280;68476;42.710;23.388;2024-01-06T02:47:41;95373.41;;;1.13;100.00
79075;BME280;68476;42.710;23.388;2024-01-06T02:50:07;95363.47;;;0.90;100.00
79075;BME280;68476;42.710;23.388;2024-01-06T02:52:32;95375.09;;;1.14;100.00
79075;BME280;68476;42.710;23.388;2024-01-06T02:54:58;95377.81;;;1.06;100.00
79075;BME280;68476;42.710;23.388;2024-01-06T02:57:24;95370.50;;;1.00;100.00
79075;BME280;68476;42.710;23.388;2024-01-06T02:59:49;95369.63;;;0.99;100.00
79075;BME280;68476;42.710;23.388;2024-01-06T03:02:16;95356.16;;;1.07;100.00
79075;BME280;68476;42.710;23.388;2024-01-06T03:04:42;95347.59;;;1.12;100.00
79075;BME280;68476;42.710;23.388;2024-01-06T03:07:07;95348.63;;;1.11;100.00
79075;BME280;68476;42.710;23.388;2024-01-06T03:09:33;95346.09;;;1.10;100.00
79075;BME280;68476;42.710;23.388;2024-01-06T03:11:58;95337.97;;;1.26;100.00
79075;BME280;68476;42.710;23.388;2024-01-06T03:14:24;95331.75;;;1.26;100.00
79075;BME280;68476;42.710;23.388;2024-01-06T03:16:49;95336.09;;;1.27;100.00
79075;BME280;68476;42.710;23.388;2024-01-06T03:19:14;95340.06;;;1.39;100.00
79075;BME280;68476;42.710;23.388;2024-01-06T03:21:40;95349.78;;;1.40;100.00
79075;BME280;68476;42.710;23.388;2024-01-06T03:24:07;95347.84;;;1.57;100.00
79075;BME280;68476;42.710;23.388;2024-01-06T03:26:34;95332.03;;;1.62;100.00
79075;BME280;68476;42.710;23.388;2024-01-06T03:28:59;95331.03;;;1.63;100.00
79075;BME280;68476;42.710;23.388;2024-01-06T03:31:28;95333.41;;;1.58;100.00
79075;BME280;68476;42.710;23.388;2024-01-06T03:33:53;95337.16;;;1.72;100.00
79075;BME280;68476;42.710;23.388;2024-01-06T03:36:21;95341.50;;;1.73;100.00
79075;BME280;68476;42.710;23.388;2024-01-06T03:38:46;95333.03;;;1.61;100.00
79075;BME280;68476;42.710;23.388;2024-01-06T03:41:12;95332.06;;;1.54;100.00
79075;BME280;68476;42.710;23.388;2024-01-06T03:43:37;95335.53;;;1.63;100.00
79075;BME280;68476;42.710;23.388;2024-01-06T03:46:03;95338.41;;;1.61;100.00
79075;BME280;68476;42.710;23.388;2024-01-06T03:48:28;95338.66;;;1.75;100.00
79075;BME280;68476;42.710;23.388;2024-01-06T03:50:54;95335.06;;;1.82;100.00
79075;BME280;68476;42.710;23.388;2024-01-06T03:53:19;95336.97;;;1.50;100.00
79075;BME280;68476;42.710;23.388;2024-01-06T03:55:45;95335.97;;;1.51;100.00
79075;BME280;68476;42.710;23.388;2024-01-06T03:58:10;95342.41;;;1.65;100.00
79075;BME280;68476;42.710;23.388;2024-01-06T04:00:35;95327.31;;;1.64;100.00
79075;BME280;68476;42.710;23.388;2024-01-06T04:03:01;95322.31;;;1.61;100.00
79075;BME280;68476;42.710;23.388;2024-01-06T04:05:26;95333.16;;;1.45;100.00
79075;BME280;68476;42.710;23.388;2024-01-06T04:07:52;95337.00;;;1.19;100.00
79075;BME280;68476;42.710;23.388;2024-01-06T04:10:17;95337.03;;;1.42;100.00
79075;BME280;68476;42.710;23.388;2024-01-06T04:12:43;95327.50;;;1.40;100.00
79075;BME280;68476;42.710;23.388;2024-01-06T04:15:08;95327.66;;;1.38;100.00
79075;BME280;68476;42.710;23.388;2024-01-06T04:17:34;95330.88;;;1.33;100.00
79075;BME280;68476;42.710;23.388;2024-01-06T04:19:59;95328.19;;;1.33;100.00
79075;BME280;68476;42.710;23.388;2024-01-06T04:22:25;95328.72;;;1.29;100.00
79075;BME280;68476;42.710;23.388;2024-01-06T04:24:50;95321.53;;;1.29;100.00
79075;BME280;68476;42.710;23.388;2024-01-06T04:27:17;95324.19;;;1.29;100.00
79075;BME280;68476;42.710;23.388;2024-01-06T04:29:42;95319.34;;;1.25;100.00
79075;BME280;68476;42.710;23.388;2024-01-06T04:32:08;95339.19;;;1.15;100.00
79075;BME280;68476;42.710;23.388;2024-01-06T04:34:33;95343.91;;;1.13;100.00
79075;BME280;68476;42.710;23.388;2024-01-06T04:36:59;95346.03;;;1.26;100.00
79075;BME280;68476;42.710;23.388;2024-01-06T04:39:24;95357.69;;;1.10;100.00
79075;BME280;68476;42.710;23.388;2024-01-06T04:41:50;95358.13;;;1.22;100.00
79075;BME280;68476;42.710;23.388;2024-01-06T04:44:16;95360.81;;;1.22;100.00
79075;BME280;68476;42.710;23.388;2024-01-06T04:46:41;95357.59;;;1.27;100.00
79075;BME280;68476;42.710;23.388;2024-01-06T04:49:06;95354.81;;;1.12;100.00
79075;BME280;68476;42.710;23.388;2024-01-06T04:51:32;95343.75;;;1.15;100.00
79075;BME280;68476;42.710;23.388;2024-01-06T04:53:57;95358.16;;;1.14;100.00
79075;BME280;68476;42.710;23.388;2024-01-06T04:56:23;95337.25;;;1.32;100.00
79075;BME280;68476;42.710;23.388;2024-01-06T04:58:48;95348.19;;;1.31;100.00
79075;BME280;68476;42.710;23.388;2024-01-06T05:01:14;95354.63;;;1.21;100.00
79075;BME280;68476;42.710;23.388;2024-01-06T05:03:40;95361.66;;;1.22;100.00
79075;BME280;68476;42.710;23.388;2024-01-06T05:06:05;95351.78;;;1.15;100.00
79075;BME280;68476;42.710;23.388;2024-01-06T05:08:31;95340.38;;;1.13;100.00
79075;BME280;68476;42.710;23.388;2024-01-06T05:10:56;95359.88;;;1.06;100.00
79075;BME280;68476;42.710;23.388;2024-01-06T05:13:22;95353.81;;;1.13;100.00
79075;BME280;68476;42.710;23.388;2024-01-06T05:15:47;95328.66;;;1.14;100.00
79075;BME280;68476;42.710;23.388;2024-01-06T05:18:13;95316.22;;;1.13;100.00
79075;BME280;68476;42.710;23.388;2024-01-06T05:20:38;95324.78;;;0.76;100.00
79075;BME280;68476;42.710;23.388;2024-01-06T05:23:06;95327.47;;;0.76;100.00
79075;BME280;68476;42.710;23.388;2024-01-06T05:25:32;95326.50;;;0.61;100.00
79075;BME280;68476;42.710;23.388;2024-01-06T05:27:57;95327.94;;;0.80;100.00
79075;BME280;68476;42.710;23.388;2024-01-06T05:30:23;95319.50;;;0.91;100.00
79075;BME280;68476;42.710;23.388;2024-01-06T05:32:48;95325.06;;;0.90;100.00
79075;BME280;68476;42.710;23.388;2024-01-06T05:35:16;95321.91;;;0.78;100.00
79075;BME280;68476;42.710;23.388;2024-01-06T05:37:41;95304.69;;;0.72;100.00
79075;BME280;68476;42.710;23.388;2024-01-06T05:40:08;95321.50;;;0.58;100.00
79075;BME280;68476;42.710;23.388;2024-01-06T05:42:33;95311.28;;;0.53;100.00
79075;BME280;68476;42.710;23.388;2024-01-06T05:44:59;95315.13;;;0.59;100.00
79075;BME280;68476;42.710;23.388;2024-01-06T05:47:24;95317.38;;;0.87;100.00
79075;BME280;68476;42.710;23.388;2024-01-06T05:49:49;95309.66;;;0.84;100.00
79075;BME280;68476;42.710;23.388;2024-01-06T05:52:15;95321.28;;;0.76;100.00
79075;BME280;68476;42.710;23.388;2024-01-06T05:54:41;95321.75;;;0.80;100.00
79075;BME280;68476;42.710;23.388;2024-01-06T05:57:10;95313.72;;;0.80;100.00
79075;BME280;68476;42.710;23.388;2024-01-06T05:59:35;95319.44;;;0.76;100.00
79075;BME280;68476;42.710;23.388;2024-01-06T06:02:01;95318.47;;;0.61;100.00
79075;BME280;68476;42.710;23.388;2024-01-06T06:04:27;95320.66;;;0.57;100.00
79075;BME280;68476;42.710;23.388;2024-01-06T06:06:52;95317.81;;;0.59;100.00
79075;BME280;68476;42.710;23.388;2024-01-06T06:09:18;95316.78;;;0.60;100.00
79075;BME280;68476;42.710;23.388;2024-01-06T06:11:46;95314.97;;;0.60;100.00
79075;BME280;68476;42.710;23.388;2024-01-06T06:14:11;95309.78;;;0.51;100.00
79075;BME280;68476;42.710;23.388;2024-01-06T06:16:38;95310.97;;;0.48;100.00
79075;BME280;68476;42.710;23.388;2024-01-06T06:19:03;95303.47;;;0.43;100.00
79075;BME280;68476;42.710;23.388;2024-01-06T06:21:29;95307.63;;;0.46;100.00
79075;BME280;68476;42.710;23.388;2024-01-06T06:23:54;95298.91;;;0.44;100.00
79075;BME280;68476;42.710;23.388;2024-01-06T06:26:20;95299.47;;;0.31;100.00
79075;BME280;68476;42.710;23.388;2024-01-06T06:28:45;95307.81;;;0.36;100.00
79075;BME280;68476;42.710;23.388;2024-01-06T06:31:11;95311.78;;;0.57;100.00
79075;BME280;68476;42.710;23.388;2024-01-06T06:33:36;95313.09;;;0.69;100.00
79075;BME280;68476;42.710;23.388;2024-01-06T06:36:02;95305.56;;;0.96;100.00
79075;BME280;68476;42.710;23.388;2024-01-06T06:38:28;95318.16;;;0.96;100.00
79075;BME280;68476;42.710;23.388;2024-01-06T06:40:53;95320.84;;;1.27;100.00
79075;BME280;68476;42.710;23.388;2024-01-06T06:43:19;95311.06;;;1.34;100.00
79075;BME280;68476;42.710;23.388;2024-01-06T06:45:44;95309.28;;;1.50;100.00
79075;BME280;68476;42.710;23.388;2024-01-06T06:48:10;95309.88;;;1.60;100.00
79075;BME280;68476;42.710;23.388;2024-01-06T06:50:35;95297.13;;;1.62;100.00
79075;BME280;68476;42.710;23.388;2024-01-06T06:53:01;95314.84;;;1.72;100.00
79075;BME280;68476;42.710;23.388;2024-01-06T06:55:26;95315.53;;;1.65;100.00
79075;BME280;68476;42.710;23.388;2024-01-06T06:57:53;95312.03;;;1.88;100.00
79075;BME280;68476;42.710;23.388;2024-01-06T07:00:19;95307.69;;;2.02;100.00
79075;BME280;68476;42.710;23.388;2024-01-06T07:02:45;95299.53;;;1.95;100.00
79075;BME280;68476;42.710;23.388;2024-01-06T07:05:10;95299.59;;;1.87;100.00
79075;BME280;68476;42.710;23.388;2024-01-06T07:07:36;95307.22;;;1.98;100.00
79075;BME280;68476;42.710;23.388;2024-01-06T07:10:03;95288.97;;;2.09;100.00
79075;BME280;68476;42.710;23.388;2024-01-06T07:12:30;95305.69;;;1.81;100.00
79075;BME280;68476;42.710;23.388;2024-01-06T07:14:56;95289.53;;;2.04;100.00
79075;BME280;68476;42.710;23.388;2024-01-06T07:17:24;95299.53;;;1.95;100.00
79075;BME280;68476;42.710;23.388;2024-01-06T07:19:49;95310.09;;;2.12;100.00
79075;BME280;68476;42.710;23.388;2024-01-06T07:22:15;95306.50;;;2.05;100.00
79075;BME280;68476;42.710;23.388;2024-01-06T07:24:44;95297.97;;;2.16;100.00
79075;BME280;68476;42.710;23.388;2024-01-06T07:27:09;95307.25;;;2.28;100.00
79075;BME280;68476;42.710;23.388;2024-01-06T07:29:35;95294.69;;;2.44;100.00
79075;BME280;68476;42.710;23.388;2024-01-06T07:32:00;95295.31;;;2.61;100.00
79075;BME280;68476;42.710;23.388;2024-01-06T07:34:26;95298.47;;;2.65;100.00
79075;BME280;68476;42.710;23.388;2024-01-06T07:36:51;95307.47;;;2.27;100.00
79075;BME280;68476;42.710;23.388;2024-01-06T07:39:17;95304.31;;;2.53;100.00
79075;BME280;68476;42.710;23.388;2024-01-06T07:41:42;95291.03;;;2.37;100.00
79075;BME280;68476;42.710;23.388;2024-01-06T07:44:08;95297.53;;;2.27;100.00
79075;BME280;68476;42.710;23.388;2024-01-06T07:46:33;95298.34;;;2.13;100.00
79075;BME280;68476;42.710;23.388;2024-01-06T07:49:00;95297.53;;;2.27;100.00
79075;BME280;68476;42.710;23.388;2024-01-06T07:51:26;95301.44;;;2.25;100.00
79075;BME280;68476;42.710;23.388;2024-01-06T07:53:51;95302.00;;;2.50;100.00
79075;BME280;68476;42.710;23.388;2024-01-06T07:56:17;95302.19;;;2.64;100.00
79075;BME280;68476;42.710;23.388;2024-01-06T07:58:43;95306.19;;;2.68;100.00
79075;BME280;68476;42.710;23.388;2024-01-06T08:01:08;95299.78;;;2.69;100.00
79075;BME280;68476;42.710;23.388;2024-01-06T08:03:34;95304.50;;;2.67;100.00
79075;BME280;68476;42.710;23.388;2024-01-06T08:05:59;95297.44;;;2.66;100.00
79075;BME280;68476;42.710;23.388;2024-01-06T08:08:25;95300.03;;;2.74;100.00
79075;BME280;68476;42.710;23.388;2024-01-06T08:10:51;95304.22;;;2.61;100.00
79075;BME280;68476;42.710;23.388;2024-01-06T08:13:16;95301.22;;;3.01;100.00
79075;BME280;68476;42.710;23.388;2024-01-06T08:15:42;95318.56;;;2.99;100.00
79075;BME280;68476;42.710;23.388;2024-01-06T08:18:07;95314.50;;;3.03;100.00
79075;BME280;68476;42.710;23.388;2024-01-06T08:20:33;95304.94;;;2.85;100.00
79075;BME280;68476;42.710;23.388;2024-01-06T08:22:58;95302.59;;;3.12;100.00
79075;BME280;68476;42.710;23.388;2024-01-06T08:25:24;95301.97;;;3.32;100.00
79075;BME280;68476;42.710;23.388;2024-01-06T08:27:49;95290.81;;;3.35;100.00
79075;BME280;68476;42.710;23.388;2024-01-06T08:30:15;95288.16;;;3.57;100.00
79075;BME280;68476;42.710;23.388;2024-01-06T08:32:40;95296.84;;;3.15;100.00
79075;BME280;68476;42.710;23.388;2024-01-06T08:35:06;95297.59;;;3.31;100.00
79075;BME280;68476;42.710;23.388;2024-01-06T08:37:32;95290.66;;;3.80;100.00
79075;BME280;68476;42.710;23.388;2024-01-06T08:39:57;95288.56;;;3.75;100.00
79075;BME280;68476;42.710;23.388;2024-01-06T08:42:23;95288.34;;;3.77;100.00
79075;BME280;68476;42.710;23.388;2024-01-06T08:44:49;95289.50;;;3.89;100.00
79075;BME280;68476;42.710;23.388;2024-01-06T08:47:15;95287.63;;;3.90;100.00
79075;BME280;68476;42.710;23.388;2024-01-06T08:49:40;95292.41;;;4.44;100.00
79075;BME280;68476;42.710;23.388;2024-01-06T08:52:05;95297.66;;;4.24;100.00
79075;BME280;68476;42.710;23.388;2024-01-06T08:54:32;95271.19;;;4.76;100.00
79075;BME280;68476;42.710;23.388;2024-01-06T08:56:58;95282.72;;;4.57;100.00
79075;BME280;68476;42.710;23.388;2024-01-06T08:59:23;95280.13;;;4.70;100.00
79075;BME280;68476;42.710;23.388;2024-01-06T09:01:49;95275.00;;;4.89;100.00
79075;BME280;68476;42.710;23.388;2024-01-06T09:04:14;95269.94;;;5.21;100.00
79075;BME280;68476;42.710;23.388;2024-01-06T09:06:40;95285.66;;;4.62;100.00
79075;BME280;68476;42.710;23.388;2024-01-06T09:09:07;95254.00;;;5.53;100.00
79075;BME280;68476;42.710;23.388;2024-01-06T09:11:33;95256.09;;;5.58;100.00
79075;BME280;68476;42.710;23.388;2024-01-06T09:13:59;95245.81;;;8.04;100.00
79075;BME280;68476;42.710;23.388;2024-01-06T09:16:26;95236.38;;;8.94;100.00
79075;BME280;68476;42.710;23.388;2024-01-06T09:18:51;95232.44;;;8.02;100.00
79075;BME280;68476;42.710;23.388;2024-01-06T09:21:17;95228.16;;;8.82;100.00
79075;BME280;68476;42.710;23.388;2024-01-06T09:23:43;95225.63;;;9.36;100.00
79075;BME280;68476;42.710;23.388;2024-01-06T09:26:09;95229.22;;;8.12;100.00
79075;BME280;68476;42.710;23.388;2024-01-06T09:28:34;95216.47;;;7.62;100.00
79075;BME280;68476;42.710;23.388;2024-01-06T09:31:00;95221.50;;;7.19;100.00
79075;BME280;68476;42.710;23.388;2024-01-06T09:33:25;95217.28;;;6.91;100.00
79075;BME280;68476;42.710;23.388;2024-01-06T09:35:51;95214.84;;;7.22;100.00
79075;BME280;68476;42.710;23.388;2024-01-06T09:38:16;95212.63;;;6.99;100.00
79075;BME280;68476;42.710;23.388;2024-01-06T09:40:45;95210.16;;;6.31;100.00
79075;BME280;68476;42.710;23.388;2024-01-06T09:43:11;95213.72;;;6.05;100.00
79075;BME280;68476;42.710;23.388;2024-01-06T09:45:38;95196.63;;;5.91;100.00
79075;BME280;68476;42.710;23.388;2024-01-06T09:48:10;95201.84;;;5.79;100.00
79075;BME280;68476;42.710;23.388;2024-01-06T09:50:40;95198.94;;;6.01;100.00
79075;BME280;68476;42.710;23.388;2024-01-06T09:53:06;95192.69;;;6.07;100.00
79075;BME280;68476;42.710;23.388;2024-01-06T09:55:34;95187.47;;;5.92;100.00
79075;BME280;68476;42.710;23.388;2024-01-06T09:58:00;95188.31;;;6.13;100.00
79075;BME280;68476;42.710;23.388;2024-01-06T10:00:26;95187.00;;;6.36;100.00
79075;BME280;68476;42.710;23.388;2024-01-06T10:02:52;95178.06;;;6.42;100.00
79075;BME280;68476;42.710;23.388;2024-01-06T10:05:18;95177.78;;;6.63;100.00
79075;BME280;68476;42.710;23.388;2024-01-06T10:07:47;95152.47;;;6.24;100.00
79075;BME280;68476;42.710;23.388;2024-01-06T10:10:13;95159.91;;;6.49;100.00
79075;BME280;68476;42.710;23.388;2024-01-06T10:12:39;95154.84;;;6.66;100.00
79075;BME280;68476;42.710;23.388;2024-01-06T10:15:07;95150.25;;;6.73;100.00
79075;BME280;68476;42.710;23.388;2024-01-06T10:17:36;95147.28;;;6.82;100.00
79075;BME280;68476;42.710;23.388;2024-01-06T10:20:03;95146.28;;;6.76;100.00
79075;BME280;68476;42.710;23.388;2024-01-06T10:22:32;95140.44;;;6.79;100.00
79075;BME280;68476;42.710;23.388;2024-01-06T10:24:58;95145.66;;;6.74;100.00
79075;BME280;68476;42.710;23.388;2024-01-06T10:27:25;95141.66;;;6.83;100.00
79075;BME280;68476;42.710;23.388;2024-01-06T10:29:50;95135.31;;;7.35;100.00
79075;BME280;68476;42.710;23.388;2024-01-06T10:32:16;95116.78;;;7.00;100.00
79075;BME280;68476;42.710;23.388;2024-01-06T10:34:42;95114.13;;;6.86;100.00
79075;BME280;68476;42.710;23.388;2024-01-06T10:37:08;95122.53;;;7.10;100.00
79075;BME280;68476;42.710;23.388;2024-01-06T10:39:34;95122.03;;;7.52;100.00
79075;BME280;68476;42.710;23.388;2024-01-06T10:42:01;95107.09;;;7.17;100.00
79075;BME280;68476;42.710;23.388;2024-01-06T10:44:28;95105.44;;;7.67;100.00
79075;BME280;68476;42.710;23.388;2024-01-06T10:46:54;95101.00;;;7.22;100.00
79075;BME280;68476;42.710;23.388;2024-01-06T10:49:23;95106.09;;;7.37;100.00
79075;BME280;68476;42.710;23.388;2024-01-06T10:51:51;95099.34;;;7.46;100.00
79075;BME280;68476;42.710;23.388;2024-01-06T10:54:17;95095.75;;;7.27;100.00
79075;BME280;68476;42.710;23.388;2024-01-06T10:56:45;95089.84;;;7.37;100.00
79075;BME280;68476;42.710;23.388;2024-01-06T10:59:11;95078.88;;;7.25;100.00
79075;BME280;68476;42.710;23.388;2024-01-06T11:01:37;95083.19;;;7.33;100.00
79075;BME280;68476;42.710;23.388;2024-01-06T11:04:04;95068.16;;;7.37;100.00
79075;BME280;68476;42.710;23.388;2024-01-06T11:06:31;95071.38;;;7.52;100.00
79075;BME280;68476;42.710;23.388;2024-01-06T11:09:07;95062.16;;;7.53;100.00
79075;BME280;68476;42.710;23.388;2024-01-06T11:11:35;95058.34;;;7.61;100.00
79075;BME280;68476;42.710;23.388;2024-01-06T11:14:36;95053.16;;;7.78;100.00
79075;BME280;68476;42.710;23.388;2024-01-06T11:17:03;95048.84;;;7.70;100.00
79075;BME280;68476;42.710;23.388;2024-01-06T11:22:31;95043.31;;;8.21;100.00
79075;BME280;68476;42.710;23.388;2024-01-06T11:25:04;95034.06;;;8.10;100.00
79075;BME280;68476;42.710;23.388;2024-01-06T11:27:31;95046.84;;;8.40;100.00
79075;BME280;68476;42.710;23.388;2024-01-06T11:30:01;95026.44;;;8.00;100.00
79075;BME280;68476;42.710;23.388;2024-01-06T11:32:36;95021.84;;;8.20;100.00
79075;BME280;68476;42.710;23.388;2024-01-06T11:35:15;95029.03;;;8.93;100.00
79075;BME280;68476;42.710;23.388;2024-01-06T11:43:08;95015.75;;;9.99;100.00
79075;BME280;68476;42.710;23.388;2024-01-06T11:45:34;94980.00;;;9.12;100.00
79075;BME280;68476;42.710;23.388;2024-01-06T11:48:01;94984.50;;;9.06;100.00
79075;BME280;68476;42.710;23.388;2024-01-06T11:50:35;94974.13;;;9.27;100.00
79075;BME280;68476;42.710;23.388;2024-01-06T11:53:02;94979.34;;;8.74;100.00
79075;BME280;68476;42.710;23.388;2024-01-06T11:55:29;94970.31;;;8.50;100.00
79075;BME280;68476;42.710;23.388;2024-01-06T11:57:57;94959.66;;;8.91;100.00
79075;BME280;68476;42.710;23.388;2024-01-06T12:00:27;94957.53;;;8.51;100.00
79075;BME280;68476;42.710;23.388;2024-01-06T12:03:01;94953.13;;;8.68;100.00
79075;BME280;68476;42.710;23.388;2024-01-06T12:05:28;94951.03;;;8.82;100.00
79075;BME280;68476;42.710;23.388;2024-01-06T12:08:00;94944.88;;;8.87;100.00
79075;BME280;68476;42.710;23.388;2024-01-06T12:10:28;94943.38;;;8.48;100.00
79075;BME280;68476;42.710;23.388;2024-01-06T12:13:06;94935.69;;;8.88;100.00
79075;BME280;68476;42.710;23.388;2024-01-06T12:15:34;94930.00;;;8.77;100.00
79075;BME280;68476;42.710;23.388;2024-01-06T12:18:02;94918.03;;;8.67;100.00
79075;BME280;68476;42.710;23.388;2024-01-06T12:20:28;94902.94;;;8.71;100.00
79075;BME280;68476;42.710;23.388;2024-01-06T12:22:55;94906.00;;;8.74;100.00
79075;BME280;68476;42.710;23.388;2024-01-06T12:25:22;94909.78;;;8.73;100.00
79075;BME280;68476;42.710;23.388;2024-01-06T12:27:49;94913.47;;;8.91;100.00
79075;BME280;68476;42.710;23.388;2024-01-06T12:30:19;94917.13;;;8.85;100.00
79075;BME280;68476;42.710;23.388;2024-01-06T12:32:46;94924.66;;;8.83;100.00
79075;BME280;68476;42.710;23.388;2024-01-06T12:35:13;94930.34;;;8.81;100.00
79075;BME280;68476;42.710;23.388;2024-01-06T12:37:39;94947.09;;;8.66;100.00
79075;BME280;68476;42.710;23.388;2024-01-06T12:40:05;94941.88;;;8.64;100.00
79075;BME280;68476;42.710;23.388;2024-01-06T12:42:31;94922.19;;;8.81;100.00
79075;BME280;68476;42.710;23.388;2024-01-06T12:44:56;94916.78;;;8.93;100.00
79075;BME280;68476;42.710;23.388;2024-01-06T12:47:22;94910.84;;;9.67;100.00
79075;BME280;68476;42.710;23.388;2024-01-06T12:49:48;94906.91;;;11.08;100.00
79075;BME280;68476;42.710;23.388;2024-01-06T12:52:13;94897.09;;;15.08;80.27
79075;BME280;68476;42.710;23.388;2024-01-06T12:54:39;94892.91;;;17.38;64.18